Terminal Aerodrome Forecast
Issued by NWS Shreveport, LA

Home | Current Version | Previous Version | Text Only | Print | Product List | Glossary On
Versions: 1 2 3 4 5 6 7 8 9 10 11 12 13 14 15 16 17
000
FTUS44 KSHV 252300
TAFSHV
TAF
KSHV 252340Z 2600/2624 17011KT P6SM FEW230 FEW270
     FM260300 17009KT P6SM SCT250
     FM260600 15007KT P6SM BKN100
     FM261000 16006KT P6SM OVC025
     FM262100 15010KT P6SM OVC025=

USA.gov is the U.S. government's official web portal to all federal, state and local government web resources and services.